sensor_id;sensor_type;location;lat;lon;timestamp;P1;durP1;ratioP1;P2;durP2;ratioP2
1691;SDS011;843;52.054;8.552;2022-12-11T00:02:06;26.17;;;18.57;;
1691;SDS011;843;52.054;8.552;2022-12-11T00:04:32;34.20;;;19.90;;
1691;SDS011;843;52.054;8.552;2022-12-11T00:06:59;32.73;;;19.90;;
1691;SDS011;843;52.054;8.552;2022-12-11T00:09:26;30.63;;;18.37;;
1691;SDS011;843;52.054;8.552;2022-12-11T00:11:54;31.10;;;19.83;;
1691;SDS011;843;52.054;8.552;2022-12-11T00:14:21;34.67;;;20.90;;
1691;SDS011;843;52.054;8.552;2022-12-11T00:16:48;33.90;;;20.13;;
1691;SDS011;843;52.054;8.552;2022-12-11T00:19:15;36.10;;;19.67;;
1691;SDS011;843;52.054;8.552;2022-12-11T00:21:42;35.17;;;21.17;;
1691;SDS011;843;52.054;8.552;2022-12-11T00:24:08;30.53;;;18.43;;
1691;SDS011;843;52.054;8.552;2022-12-11T00:26:35;38.03;;;19.43;;
1691;SDS011;843;52.054;8.552;2022-12-11T00:29:04;31.13;;;19.20;;
1691;SDS011;843;52.054;8.552;2022-12-11T00:31:32;33.77;;;20.70;;
1691;SDS011;843;52.054;8.552;2022-12-11T00:33:59;39.33;;;20.90;;
1691;SDS011;843;52.054;8.552;2022-12-11T00:36:26;43.73;;;20.27;;
1691;SDS011;843;52.054;8.552;2022-12-11T00:38:53;31.50;;;19.37;;
1691;SDS011;843;52.054;8.552;2022-12-11T00:41:20;36.10;;;21.07;;
1691;SDS011;843;52.054;8.552;2022-12-11T00:43:47;33.37;;;20.50;;
1691;SDS011;843;52.054;8.552;2022-12-11T00:46:15;33.73;;;20.00;;
1691;SDS011;843;52.054;8.552;2022-12-11T00:48:42;29.93;;;20.30;;
1691;SDS011;843;52.054;8.552;2022-12-11T00:51:10;40.70;;;22.50;;
1691;SDS011;843;52.054;8.552;2022-12-11T00:53:37;36.10;;;20.57;;
1691;SDS011;843;52.054;8.552;2022-12-11T00:56:08;37.90;;;23.33;;
1691;SDS011;843;52.054;8.552;2022-12-11T00:58:36;38.20;;;22.40;;
1691;SDS011;843;52.054;8.552;2022-12-11T01:01:06;40.35;;;23.10;;
1691;SDS011;843;52.054;8.552;2022-12-11T01:03:36;43.30;;;22.77;;
1691;SDS011;843;52.054;8.552;2022-12-11T01:06:03;36.17;;;21.37;;
1691;SDS011;843;52.054;8.552;2022-12-11T01:08:30;42.97;;;24.20;;
1691;SDS011;843;52.054;8.552;2022-12-11T01:11:01;56.70;;;28.10;;
1691;SDS011;843;52.054;8.552;2022-12-11T01:13:34;52.30;;;26.80;;
1691;SDS011;843;52.054;8.552;2022-12-11T01:16:04;59.67;;;28.73;;
1691;SDS011;843;52.054;8.552;2022-12-11T01:18:31;55.70;;;28.33;;
1691;SDS011;843;52.054;8.552;2022-12-11T01:20:59;58.73;;;26.60;;
1691;SDS011;843;52.054;8.552;2022-12-11T01:23:30;54.60;;;26.60;;
1691;SDS011;843;52.054;8.552;2022-12-11T01:26:02;55.20;;;28.20;;
1691;SDS011;843;52.054;8.552;2022-12-11T01:28:30;56.27;;;28.27;;
1691;SDS011;843;52.054;8.552;2022-12-11T01:30:56;64.67;;;29.53;;
1691;SDS011;843;52.054;8.552;2022-12-11T01:33:23;50.37;;;26.40;;
1691;SDS011;843;52.054;8.552;2022-12-11T01:35:49;60.27;;;26.43;;
1691;SDS011;843;52.054;8.552;2022-12-11T01:38:17;49.45;;;26.17;;
1691;SDS011;843;52.054;8.552;2022-12-11T01:40:45;62.60;;;27.00;;
1691;SDS011;843;52.054;8.552;2022-12-11T01:43:11;57.73;;;29.17;;
1691;SDS011;843;52.054;8.552;2022-12-11T01:45:38;55.20;;;27.00;;
1691;SDS011;843;52.054;8.552;2022-12-11T01:48:07;54.37;;;27.80;;
1691;SDS011;843;52.054;8.552;2022-12-11T01:50:37;64.40;;;28.10;;
1691;SDS011;843;52.054;8.552;2022-12-11T01:53:06;68.73;;;28.17;;
1691;SDS011;843;52.054;8.552;2022-12-11T01:55:35;54.43;;;28.40;;
1691;SDS011;843;52.054;8.552;2022-12-11T01:58:03;70.90;;;30.70;;
1691;SDS011;843;52.054;8.552;2022-12-11T02:00:30;78.10;;;30.77;;
1691;SDS011;843;52.054;8.552;2022-12-11T02:02:57;95.73;;;33.57;;
1691;SDS011;843;52.054;8.552;2022-12-11T02:05:24;74.37;;;33.57;;
1691;SDS011;843;52.054;8.552;2022-12-11T02:07:51;71.03;;;31.17;;
1691;SDS011;843;52.054;8.552;2022-12-11T02:10:20;73.40;;;31.33;;
1691;SDS011;843;52.054;8.552;2022-12-11T02:12:53;85.17;;;34.50;;
1691;SDS011;843;52.054;8.552;2022-12-11T02:15:24;78.43;;;31.60;;
1691;SDS011;843;52.054;8.552;2022-12-11T02:17:57;81.27;;;34.10;;
1691;SDS011;843;52.054;8.552;2022-12-11T02:20:30;73.57;;;31.63;;
1691;SDS011;843;52.054;8.552;2022-12-11T02:26:06;90.90;;;31.97;;
1691;SDS011;843;52.054;8.552;2022-12-11T02:28:47;68.53;;;32.60;;
1691;SDS011;843;52.054;8.552;2022-12-11T02:31:15;83.50;;;35.10;;
1691;SDS011;843;52.054;8.552;2022-12-11T02:33:47;71.40;;;31.40;;
1691;SDS011;843;52.054;8.552;2022-12-11T02:36:18;65.80;;;31.80;;
1691;SDS011;843;52.054;8.552;2022-12-11T02:38:47;94.13;;;32.50;;
1691;SDS011;843;52.054;8.552;2022-12-11T02:41:16;75.83;;;33.07;;
1691;SDS011;843;52.054;8.552;2022-12-11T02:43:44;75.43;;;34.47;;
1691;SDS011;843;52.054;8.552;2022-12-11T02:46:13;75.63;;;31.43;;
1691;SDS011;843;52.054;8.552;2022-12-11T02:48:41;95.07;;;34.83;;
1691;SDS011;843;52.054;8.552;2022-12-11T02:51:09;65.97;;;32.43;;
1691;SDS011;843;52.054;8.552;2022-12-11T02:53:37;68.67;;;35.63;;
1691;SDS011;843;52.054;8.552;2022-12-11T02:56:07;76.00;;;31.00;;
1691;SDS011;843;52.054;8.552;2022-12-11T02:58:36;76.93;;;32.97;;
1691;SDS011;843;52.054;8.552;2022-12-11T03:01:08;71.10;;;31.47;;
1691;SDS011;843;52.054;8.552;2022-12-11T03:03:35;78.97;;;33.70;;
1691;SDS011;843;52.054;8.552;2022-12-11T03:06:02;79.83;;;32.97;;
1691;SDS011;843;52.054;8.552;2022-12-11T03:08:29;73.33;;;31.07;;
1691;SDS011;843;52.054;8.552;2022-12-11T03:10:56;87.07;;;34.73;;
1691;SDS011;843;52.054;8.552;2022-12-11T03:13:23;85.43;;;31.37;;
1691;SDS011;843;52.054;8.552;2022-12-11T03:15:53;90.17;;;34.73;;
1691;SDS011;843;52.054;8.552;2022-12-11T03:18:29;75.73;;;31.77;;
1691;SDS011;843;52.054;8.552;2022-12-11T03:21:01;72.63;;;33.00;;
1691;SDS011;843;52.054;8.552;2022-12-11T03:23:31;82.53;;;35.27;;
1691;SDS011;843;52.054;8.552;2022-12-11T03:26:00;88.43;;;33.27;;
1691;SDS011;843;52.054;8.552;2022-12-11T03:28:29;67.90;;;30.83;;
1691;SDS011;843;52.054;8.552;2022-12-11T03:31:00;71.40;;;33.73;;
1691;SDS011;843;52.054;8.552;2022-12-11T03:33:31;74.90;;;33.77;;
1691;SDS011;843;52.054;8.552;2022-12-11T03:36:02;73.53;;;31.00;;
1691;SDS011;843;52.054;8.552;2022-12-11T03:38:32;69.57;;;29.53;;
1691;SDS011;843;52.054;8.552;2022-12-11T03:41:02;72.07;;;33.50;;
1691;SDS011;843;52.054;8.552;2022-12-11T03:43:30;80.83;;;34.13;;
1691;SDS011;843;52.054;8.552;2022-12-11T03:45:58;68.50;;;32.10;;
1691;SDS011;843;52.054;8.552;2022-12-11T03:48:27;71.73;;;30.87;;
1691;SDS011;843;52.054;8.552;2022-12-11T03:50:56;75.80;;;32.37;;
1691;SDS011;843;52.054;8.552;2022-12-11T03:53:24;71.77;;;32.70;;
1691;SDS011;843;52.054;8.552;2022-12-11T03:55:51;69.33;;;32.87;;
1691;SDS011;843;52.054;8.552;2022-12-11T03:58:18;72.40;;;33.90;;
1691;SDS011;843;52.054;8.552;2022-12-11T04:00:44;72.50;;;31.90;;
1691;SDS011;843;52.054;8.552;2022-12-11T04:03:11;71.53;;;35.80;;
1691;SDS011;843;52.054;8.552;2022-12-11T04:05:38;84.90;;;34.53;;
1691;SDS011;843;52.054;8.552;2022-12-11T04:08:06;77.10;;;34.87;;
1691;SDS011;843;52.054;8.552;2022-12-11T04:10:32;71.33;;;33.67;;
1691;SDS011;843;52.054;8.552;2022-12-11T04:12:59;77.63;;;34.20;;
1691;SDS011;843;52.054;8.552;2022-12-11T04:15:25;85.67;;;35.13;;
1691;SDS011;843;52.054;8.552;2022-12-11T04:17:51;77.13;;;35.87;;
1691;SDS011;843;52.054;8.552;2022-12-11T04:20:35;85.17;;;34.17;;
1691;SDS011;843;52.054;8.552;2022-12-11T04:23:21;95.23;;;32.60;;
1691;SDS011;843;52.054;8.552;2022-12-11T04:26:05;66.63;;;30.33;;
1691;SDS011;843;52.054;8.552;2022-12-11T04:28:33;88.47;;;36.30;;
1691;SDS011;843;52.054;8.552;2022-12-11T04:31:00;72.30;;;34.90;;
1691;SDS011;843;52.054;8.552;2022-12-11T04:33:27;80.13;;;32.50;;
1691;SDS011;843;52.054;8.552;2022-12-11T04:35:55;81.13;;;32.70;;
1691;SDS011;843;52.054;8.552;2022-12-11T04:38:24;68.63;;;32.03;;
1691;SDS011;843;52.054;8.552;2022-12-11T04:40:55;71.77;;;33.33;;
1691;SDS011;843;52.054;8.552;2022-12-11T04:43:23;72.67;;;36.57;;
1691;SDS011;843;52.054;8.552;2022-12-11T04:45:49;74.23;;;33.80;;
1691;SDS011;843;52.054;8.552;2022-12-11T04:48:16;83.70;;;33.60;;
1691;SDS011;843;52.054;8.552;2022-12-11T04:50:42;71.90;;;31.67;;
1691;SDS011;843;52.054;8.552;2022-12-11T04:53:10;84.67;;;34.20;;
1691;SDS011;843;52.054;8.552;2022-12-11T04:55:39;79.53;;;36.30;;
1691;SDS011;843;52.054;8.552;2022-12-11T04:58:05;80.50;;;33.67;;
1691;SDS011;843;52.054;8.552;2022-12-11T05:00:32;80.00;;;33.60;;
1691;SDS011;843;52.054;8.552;2022-12-11T05:02:58;76.80;;;32.97;;
1691;SDS011;843;52.054;8.552;2022-12-11T05:05:25;75.53;;;33.13;;
1691;SDS011;843;52.054;8.552;2022-12-11T05:07:52;76.60;;;32.13;;
1691;SDS011;843;52.054;8.552;2022-12-11T05:10:18;74.10;;;34.53;;
1691;SDS011;843;52.054;8.552;2022-12-11T05:12:46;74.33;;;31.00;;
1691;SDS011;843;52.054;8.552;2022-12-11T05:15:13;79.47;;;33.47;;
1691;SDS011;843;52.054;8.552;2022-12-11T05:17:39;71.47;;;32.13;;
1691;SDS011;843;52.054;8.552;2022-12-11T05:20:06;71.03;;;30.80;;
1691;SDS011;843;52.054;8.552;2022-12-11T05:22:34;78.67;;;34.90;;
1691;SDS011;843;52.054;8.552;2022-12-11T05:25:01;79.33;;;32.93;;
1691;SDS011;843;52.054;8.552;2022-12-11T05:27:28;68.77;;;31.57;;
1691;SDS011;843;52.054;8.552;2022-12-11T05:29:56;76.37;;;30.77;;
1691;SDS011;843;52.054;8.552;2022-12-11T05:32:23;71.50;;;30.80;;
1691;SDS011;843;52.054;8.552;2022-12-11T05:34:49;69.90;;;29.87;;
1691;SDS011;843;52.054;8.552;2022-12-11T05:37:16;68.83;;;29.50;;
1691;SDS011;843;52.054;8.552;2022-12-11T05:39:43;66.60;;;28.57;;
1691;SDS011;843;52.054;8.552;2022-12-11T05:42:09;60.03;;;26.27;;
1691;SDS011;843;52.054;8.552;2022-12-11T05:44:36;65.93;;;29.30;;
1691;SDS011;843;52.054;8.552;2022-12-11T05:47:04;56.10;;;24.87;;
1691;SDS011;843;52.054;8.552;2022-12-11T05:49:30;61.40;;;26.73;;
1691;SDS011;843;52.054;8.552;2022-12-11T05:51:57;56.80;;;27.47;;
1691;SDS011;843;52.054;8.552;2022-12-11T05:54:24;59.70;;;25.00;;
1691;SDS011;843;52.054;8.552;2022-12-11T05:56:50;63.50;;;27.40;;
1691;SDS011;843;52.054;8.552;2022-12-11T05:59:17;53.33;;;24.03;;
1691;SDS011;843;52.054;8.552;2022-12-11T06:01:44;56.53;;;24.47;;
1691;SDS011;843;52.054;8.552;2022-12-11T06:04:12;47.60;;;23.30;;
1691;SDS011;843;52.054;8.552;2022-12-11T06:06:39;59.03;;;23.83;;
1691;SDS011;843;52.054;8.552;2022-12-11T06:09:10;57.30;;;21.50;;
1691;SDS011;843;52.054;8.552;2022-12-11T06:11:39;50.53;;;22.90;;
1691;SDS011;843;52.054;8.552;2022-12-11T06:14:06;56.30;;;24.87;;
1691;SDS011;843;52.054;8.552;2022-12-11T06:16:33;51.23;;;20.50;;
1691;SDS011;843;52.054;8.552;2022-12-11T06:19:00;51.30;;;24.47;;
1691;SDS011;843;52.054;8.552;2022-12-11T06:21:28;53.93;;;22.00;;
1691;SDS011;843;52.054;8.552;2022-12-11T06:23:57;50.47;;;23.80;;
1691;SDS011;843;52.054;8.552;2022-12-11T06:26:25;49.77;;;21.70;;
1691;SDS011;843;52.054;8.552;2022-12-11T06:28:52;40.70;;;17.40;;
1691;SDS011;843;52.054;8.552;2022-12-11T06:31:19;47.60;;;22.03;;
1691;SDS011;843;52.054;8.552;2022-12-11T06:33:46;52.10;;;22.00;;
1691;SDS011;843;52.054;8.552;2022-12-11T06:36:14;53.80;;;21.17;;
1691;SDS011;843;52.054;8.552;2022-12-11T06:38:43;43.03;;;19.83;;
1691;SDS011;843;52.054;8.552;2022-12-11T06:41:10;45.70;;;21.83;;
1691;SDS011;843;52.054;8.552;2022-12-11T06:43:37;55.07;;;23.20;;
1691;SDS011;843;52.054;8.552;2022-12-11T06:46:05;52.97;;;22.80;;
1691;SDS011;843;52.054;8.552;2022-12-11T06:48:32;50.87;;;22.60;;
1691;SDS011;843;52.054;8.552;2022-12-11T06:51:03;64.80;;;23.67;;
1691;SDS011;843;52.054;8.552;2022-12-11T06:53:30;54.57;;;23.90;;
1691;SDS011;843;52.054;8.552;2022-12-11T06:56:01;53.40;;;25.90;;
1691;SDS011;843;52.054;8.552;2022-12-11T06:58:29;52.40;;;23.70;;
1691;SDS011;843;52.054;8.552;2022-12-11T07:00:55;60.00;;;23.27;;
1691;SDS011;843;52.054;8.552;2022-12-11T07:03:22;64.53;;;26.73;;
1691;SDS011;843;52.054;8.552;2022-12-11T07:05:49;55.23;;;23.50;;
1691;SDS011;843;52.054;8.552;2022-12-11T07:08:15;57.93;;;23.50;;
1691;SDS011;843;52.054;8.552;2022-12-11T07:10:42;50.27;;;23.63;;
1691;SDS011;843;52.054;8.552;2022-12-11T07:13:10;56.50;;;22.80;;
1691;SDS011;843;52.054;8.552;2022-12-11T07:15:36;45.77;;;22.97;;
1691;SDS011;843;52.054;8.552;2022-12-11T07:18:03;47.00;;;20.73;;
1691;SDS011;843;52.054;8.552;2022-12-11T07:20:30;54.27;;;22.70;;
1691;SDS011;843;52.054;8.552;2022-12-11T07:22:56;58.20;;;23.07;;
1691;SDS011;843;52.054;8.552;2022-12-11T07:25:23;49.97;;;22.73;;
1691;SDS011;843;52.054;8.552;2022-12-11T07:27:49;57.40;;;23.73;;
1691;SDS011;843;52.054;8.552;2022-12-11T07:30:17;50.17;;;26.13;;
1691;SDS011;843;52.054;8.552;2022-12-11T07:32:44;63.27;;;23.87;;
1691;SDS011;843;52.054;8.552;2022-12-11T07:35:11;55.00;;;26.37;;
1691;SDS011;843;52.054;8.552;2022-12-11T07:37:38;58.50;;;23.00;;
1691;SDS011;843;52.054;8.552;2022-12-11T07:40:06;54.77;;;21.53;;
1691;SDS011;843;52.054;8.552;2022-12-11T07:42:34;49.87;;;23.13;;
1691;SDS011;843;52.054;8.552;2022-12-11T07:45:00;57.60;;;22.40;;
1691;SDS011;843;52.054;8.552;2022-12-11T07:47:28;51.47;;;21.60;;
1691;SDS011;843;52.054;8.552;2022-12-11T07:49:55;49.70;;;22.63;;
1691;SDS011;843;52.054;8.552;2022-12-11T07:52:22;43.63;;;19.63;;
1691;SDS011;843;52.054;8.552;2022-12-11T07:54:48;51.93;;;22.90;;
1691;SDS011;843;52.054;8.552;2022-12-11T07:57:15;52.03;;;20.97;;
1691;SDS011;843;52.054;8.552;2022-12-11T07:59:41;51.17;;;19.93;;
1691;SDS011;843;52.054;8.552;2022-12-11T08:02:08;52.67;;;22.63;;
1691;SDS011;843;52.054;8.552;2022-12-11T08:04:37;53.83;;;20.50;;
1691;SDS011;843;52.054;8.552;2022-12-11T08:07:03;52.50;;;21.63;;
1691;SDS011;843;52.054;8.552;2022-12-11T08:09:30;53.67;;;20.80;;
1691;SDS011;843;52.054;8.552;2022-12-11T08:11:57;53.47;;;20.17;;
1691;SDS011;843;52.054;8.552;2022-12-11T08:14:23;45.97;;;19.00;;
1691;SDS011;843;52.054;8.552;2022-12-11T08:16:50;58.00;;;22.83;;
1691;SDS011;843;52.054;8.552;2022-12-11T08:19:17;49.73;;;21.40;;
1691;SDS011;843;52.054;8.552;2022-12-11T08:21:45;60.77;;;27.50;;
1691;SDS011;843;52.054;8.552;2022-12-11T08:24:11;56.37;;;25.60;;
1691;SDS011;843;52.054;8.552;2022-12-11T08:26:40;49.03;;;23.50;;
1691;SDS011;843;52.054;8.552;2022-12-11T08:29:07;49.50;;;22.17;;
1691;SDS011;843;52.054;8.552;2022-12-11T08:31:35;49.00;;;20.87;;
1691;SDS011;843;52.054;8.552;2022-12-11T08:34:01;53.83;;;21.50;;
1691;SDS011;843;52.054;8.552;2022-12-11T08:36:28;47.70;;;20.10;;
1691;SDS011;843;52.054;8.552;2022-12-11T08:38:56;55.50;;;21.40;;
1691;SDS011;843;52.054;8.552;2022-12-11T08:41:24;53.17;;;21.37;;
1691;SDS011;843;52.054;8.552;2022-12-11T08:43:51;55.40;;;25.23;;
1691;SDS011;843;52.054;8.552;2022-12-11T08:46:19;59.60;;;24.90;;
1691;SDS011;843;52.054;8.552;2022-12-11T08:48:46;46.27;;;19.43;;
1691;SDS011;843;52.054;8.552;2022-12-11T08:51:13;64.63;;;24.40;;
1691;SDS011;843;52.054;8.552;2022-12-11T08:53:41;56.67;;;21.93;;
1691;SDS011;843;52.054;8.552;2022-12-11T08:56:10;48.13;;;17.53;;
1691;SDS011;843;52.054;8.552;2022-12-11T08:58:38;51.80;;;21.47;;
1691;SDS011;843;52.054;8.552;2022-12-11T09:01:05;50.00;;;20.83;;
1691;SDS011;843;52.054;8.552;2022-12-11T09:03:33;48.00;;;19.43;;
1691;SDS011;843;52.054;8.552;2022-12-11T09:06:02;39.50;;;18.13;;
1691;SDS011;843;52.054;8.552;2022-12-11T09:08:30;51.40;;;18.90;;
1691;SDS011;843;52.054;8.552;2022-12-11T09:11:01;50.13;;;19.13;;
1691;SDS011;843;52.054;8.552;2022-12-11T09:13:29;62.00;;;18.40;;
1691;SDS011;843;52.054;8.552;2022-12-11T09:15:56;49.47;;;17.97;;
1691;SDS011;843;52.054;8.552;2022-12-11T09:18:23;43.53;;;18.47;;
1691;SDS011;843;52.054;8.552;2022-12-11T09:20:56;45.97;;;19.40;;
1691;SDS011;843;52.054;8.552;2022-12-11T09:23:23;44.97;;;19.90;;
1691;SDS011;843;52.054;8.552;2022-12-11T09:25:50;38.63;;;18.33;;
1691;SDS011;843;52.054;8.552;2022-12-11T09:28:16;38.97;;;17.50;;
1691;SDS011;843;52.054;8.552;2022-12-11T09:30:45;49.20;;;20.60;;
1691;SDS011;843;52.054;8.552;2022-12-11T09:33:13;40.93;;;18.03;;
1691;SDS011;843;52.054;8.552;2022-12-11T09:35:40;42.67;;;18.93;;
1691;SDS011;843;52.054;8.552;2022-12-11T09:38:07;48.90;;;18.13;;
1691;SDS011;843;52.054;8.552;2022-12-11T09:40:38;44.97;;;19.83;;
1691;SDS011;843;52.054;8.552;2022-12-11T09:43:08;41.37;;;18.10;;
1691;SDS011;843;52.054;8.552;2022-12-11T09:45:40;39.60;;;17.37;;
1691;SDS011;843;52.054;8.552;2022-12-11T09:48:08;52.17;;;20.10;;
1691;SDS011;843;52.054;8.552;2022-12-11T09:50:36;47.23;;;20.07;;
1691;SDS011;843;52.054;8.552;2022-12-11T09:53:04;36.67;;;17.30;;
1691;SDS011;843;52.054;8.552;2022-12-11T09:55:36;38.47;;;19.77;;
1691;SDS011;843;52.054;8.552;2022-12-11T09:58:09;38.67;;;16.93;;
1691;SDS011;843;52.054;8.552;2022-12-11T10:00:43;36.43;;;17.70;;
1691;SDS011;843;52.054;8.552;2022-12-11T10:06:17;41.83;;;20.77;;
1691;SDS011;843;52.054;8.552;2022-12-11T10:08:49;35.90;;;17.57;;
1691;SDS011;843;52.054;8.552;2022-12-11T10:11:26;38.90;;;18.53;;
1691;SDS011;843;52.054;8.552;2022-12-11T10:14:03;40.50;;;18.40;;
1691;SDS011;843;52.054;8.552;2022-12-11T10:16:34;38.67;;;18.40;;
1691;SDS011;843;52.054;8.552;2022-12-11T10:19:04;32.70;;;18.40;;
1691;SDS011;843;52.054;8.552;2022-12-11T10:21:33;34.07;;;18.77;;
1691;SDS011;843;52.054;8.552;2022-12-11T10:24:03;38.07;;;21.47;;
1691;SDS011;843;52.054;8.552;2022-12-11T10:26:36;39.27;;;18.83;;
1691;SDS011;843;52.054;8.552;2022-12-11T10:29:05;39.00;;;17.73;;
1691;SDS011;843;52.054;8.552;2022-12-11T10:31:39;39.40;;;21.63;;
1691;SDS011;843;52.054;8.552;2022-12-11T10:34:14;30.90;;;17.03;;
1691;SDS011;843;52.054;8.552;2022-12-11T10:36:44;33.20;;;18.67;;
1691;SDS011;843;52.054;8.552;2022-12-11T10:39:11;33.90;;;18.80;;
1691;SDS011;843;52.054;8.552;2022-12-11T10:41:40;39.70;;;19.47;;
1691;SDS011;843;52.054;8.552;2022-12-11T10:44:13;40.70;;;27.13;;
1691;SDS011;843;52.054;8.552;2022-12-11T10:46:41;41.73;;;25.47;;
1691;SDS011;843;52.054;8.552;2022-12-11T10:49:20;41.10;;;23.33;;
1691;SDS011;843;52.054;8.552;2022-12-11T10:51:48;45.33;;;21.97;;
1691;SDS011;843;52.054;8.552;2022-12-11T10:54:16;37.00;;;20.90;;
1691;SDS011;843;52.054;8.552;2022-12-11T10:56:54;33.03;;;16.90;;
1691;SDS011;843;52.054;8.552;2022-12-11T10:59:21;33.80;;;18.63;;
1691;SDS011;843;52.054;8.552;2022-12-11T11:01:50;36.40;;;19.00;;
1691;SDS011;843;52.054;8.552;2022-12-11T11:04:18;33.70;;;19.20;;
1691;SDS011;843;52.054;8.552;2022-12-11T11:06:48;40.83;;;19.10;;
1691;SDS011;843;52.054;8.552;2022-12-11T11:09:29;38.17;;;20.07;;
1691;SDS011;843;52.054;8.552;2022-12-11T11:11:57;39.03;;;19.63;;
1691;SDS011;843;52.054;8.552;2022-12-11T11:14:24;34.53;;;19.57;;
1691;SDS011;843;52.054;8.552;2022-12-11T11:16:51;31.17;;;19.63;;
1691;SDS011;843;52.054;8.552;2022-12-11T11:19:23;33.30;;;17.80;;
1691;SDS011;843;52.054;8.552;2022-12-11T11:21:54;35.63;;;19.50;;
1691;SDS011;843;52.054;8.552;2022-12-11T11:24:26;36.37;;;20.13;;
1691;SDS011;843;52.054;8.552;2022-12-11T11:26:55;38.43;;;20.90;;
1691;SDS011;843;52.054;8.552;2022-12-11T11:29:23;28.97;;;16.50;;
1691;SDS011;843;52.054;8.552;2022-12-11T11:31:52;33.33;;;18.00;;
1691;SDS011;843;52.054;8.552;2022-12-11T11:34:20;30.67;;;17.47;;
1691;SDS011;843;52.054;8.552;2022-12-11T11:36:55;23.77;;;14.17;;
1691;SDS011;843;52.054;8.552;2022-12-11T11:39:25;30.07;;;17.87;;
1691;SDS011;843;52.054;8.552;2022-12-11T11:41:57;33.53;;;15.33;;
1691;SDS011;843;52.054;8.552;2022-12-11T11:44:29;29.73;;;17.30;;
1691;SDS011;843;52.054;8.552;2022-12-11T11:46:58;32.57;;;17.60;;
1691;SDS011;843;52.054;8.552;2022-12-11T11:49:31;31.90;;;15.50;;
1691;SDS011;843;52.054;8.552;2022-12-11T11:52:14;27.90;;;16.37;;
1691;SDS011;843;52.054;8.552;2022-12-11T11:54:46;29.50;;;16.40;;
1691;SDS011;843;52.054;8.552;2022-12-11T11:57:16;18.00;;;11.73;;
1691;SDS011;843;52.054;8.552;2022-12-11T11:59:46;29.40;;;14.10;;
1691;SDS011;843;52.054;8.552;2022-12-11T12:02:15;22.47;;;11.07;;
1691;SDS011;843;52.054;8.552;2022-12-11T12:04:44;18.13;;;11.60;;
1691;SDS011;843;52.054;8.552;2022-12-11T12:07:19;18.23;;;11.50;;
1691;SDS011;843;52.054;8.552;2022-12-11T12:09:52;21.73;;;12.47;;
1691;SDS011;843;52.054;8.552;2022-12-11T12:12:24;20.43;;;13.17;;
1691;SDS011;843;52.054;8.552;2022-12-11T12:15:01;25.00;;;12.30;;
1691;SDS011;843;52.054;8.552;2022-12-11T12:17:53;19.30;;;10.70;;
1691;SDS011;843;52.054;8.552;2022-12-11T12:20:23;20.23;;;11.53;;
1691;SDS011;843;52.054;8.552;2022-12-11T12:22:59;16.40;;;10.87;;
1691;SDS011;843;52.054;8.552;2022-12-11T12:25:34;13.23;;;9.00;;
1691;SDS011;843;52.054;8.552;2022-12-11T12:28:06;13.87;;;8.23;;
1691;SDS011;843;52.054;8.552;2022-12-11T12:30:41;18.40;;;10.87;;
1691;SDS011;843;52.054;8.552;2022-12-11T12:33:17;17.47;;;10.27;;
1691;SDS011;843;52.054;8.552;2022-12-11T12:35:49;19.70;;;11.23;;
1691;SDS011;843;52.054;8.552;2022-12-11T12:38:25;19.53;;;12.00;;
1691;SDS011;843;52.054;8.552;2022-12-11T12:40:58;15.43;;;10.20;;
1691;SDS011;843;52.054;8.552;2022-12-11T12:43:34;17.27;;;12.70;;
1691;SDS011;843;52.054;8.552;2022-12-11T12:46:20;20.13;;;13.10;;
1691;SDS011;843;52.054;8.552;2022-12-11T12:48:52;18.53;;;10.33;;
1691;SDS011;843;52.054;8.552;2022-12-11T12:51:20;19.03;;;10.80;;
1691;SDS011;843;52.054;8.552;2022-12-11T12:53:49;20.57;;;11.90;;
1691;SDS011;843;52.054;8.552;2022-12-11T12:56:20;18.63;;;10.83;;
1691;SDS011;843;52.054;8.552;2022-12-11T12:58:47;19.60;;;11.67;;
1691;SDS011;843;52.054;8.552;2022-12-11T13:01:14;17.37;;;10.20;;
1691;SDS011;843;52.054;8.552;2022-12-11T13:03:50;21.50;;;12.43;;
1691;SDS011;843;52.054;8.552;2022-12-11T13:06:27;16.63;;;11.43;;
1691;SDS011;843;52.054;8.552;2022-12-11T13:08:57;18.60;;;11.77;;
1691;SDS011;843;52.054;8.552;2022-12-11T13:11:34;19.20;;;12.00;;
1691;SDS011;843;52.054;8.552;2022-12-11T13:14:03;19.63;;;12.03;;
1691;SDS011;843;52.054;8.552;2022-12-11T13:16:35;23.10;;;13.10;;
1691;SDS011;843;52.054;8.552;2022-12-11T13:19:14;16.97;;;11.20;;
1691;SDS011;843;52.054;8.552;2022-12-11T13:21:42;18.70;;;11.40;;
1691;SDS011;843;52.054;8.552;2022-12-11T13:24:14;22.73;;;12.13;;
1691;SDS011;843;52.054;8.552;2022-12-11T13:26:42;21.87;;;12.90;;
1691;SDS011;843;52.054;8.552;2022-12-11T13:31:55;22.53;;;13.23;;
1691;SDS011;843;52.054;8.552;2022-12-11T13:34:23;21.30;;;12.80;;
1691;SDS011;843;52.054;8.552;2022-12-11T13:36:50;24.70;;;14.97;;
1691;SDS011;843;52.054;8.552;2022-12-11T13:39:21;21.93;;;13.70;;
1691;SDS011;843;52.054;8.552;2022-12-11T13:41:50;23.53;;;15.10;;
1691;SDS011;843;52.054;8.552;2022-12-11T13:44:19;25.60;;;13.73;;
1691;SDS011;843;52.054;8.552;2022-12-11T13:46:48;25.13;;;15.20;;
1691;SDS011;843;52.054;8.552;2022-12-11T13:49:17;23.50;;;14.10;;
1691;SDS011;843;52.054;8.552;2022-12-11T13:51:50;25.90;;;14.43;;
1691;SDS011;843;52.054;8.552;2022-12-11T13:54:20;23.60;;;15.60;;
1691;SDS011;843;52.054;8.552;2022-12-11T13:56:52;26.17;;;15.70;;
1691;SDS011;843;52.054;8.552;2022-12-11T13:59:24;25.10;;;14.97;;
1691;SDS011;843;52.054;8.552;2022-12-11T14:01:54;28.40;;;14.27;;
1691;SDS011;843;52.054;8.552;2022-12-11T14:04:21;27.63;;;14.90;;
1691;SDS011;843;52.054;8.552;2022-12-11T14:06:49;23.73;;;14.07;;
1691;SDS011;843;52.054;8.552;2022-12-11T14:09:16;23.93;;;14.63;;
1691;SDS011;843;52.054;8.552;2022-12-11T14:11:46;28.30;;;14.43;;
1691;SDS011;843;52.054;8.552;2022-12-11T14:14:16;26.23;;;16.23;;
1691;SDS011;843;52.054;8.552;2022-12-11T14:16:46;25.57;;;14.07;;
1691;SDS011;843;52.054;8.552;2022-12-11T14:19:13;25.90;;;14.20;;
1691;SDS011;843;52.054;8.552;2022-12-11T14:21:42;25.67;;;15.00;;
1691;SDS011;843;52.054;8.552;2022-12-11T14:24:09;23.63;;;14.10;;
1691;SDS011;843;52.054;8.552;2022-12-11T14:26:37;28.30;;;16.67;;
1691;SDS011;843;52.054;8.552;2022-12-11T14:29:05;21.23;;;12.97;;
1691;SDS011;843;52.054;8.552;2022-12-11T14:31:33;24.30;;;14.23;;
1691;SDS011;843;52.054;8.552;2022-12-11T14:34:03;26.73;;;15.33;;
1691;SDS011;843;52.054;8.552;2022-12-11T14:36:34;23.97;;;15.20;;
1691;SDS011;843;52.054;8.552;2022-12-11T14:39:02;23.43;;;14.70;;
1691;SDS011;843;52.054;8.552;2022-12-11T14:41:32;24.63;;;14.60;;
1691;SDS011;843;52.054;8.552;2022-12-11T14:44:05;22.37;;;15.30;;
1691;SDS011;843;52.054;8.552;2022-12-11T14:46:34;24.83;;;14.00;;
1691;SDS011;843;52.054;8.552;2022-12-11T14:49:04;24.70;;;15.30;;
1691;SDS011;843;52.054;8.552;2022-12-11T14:51:34;21.57;;;14.10;;
1691;SDS011;843;52.054;8.552;2022-12-11T14:54:03;22.93;;;13.93;;
1691;SDS011;843;52.054;8.552;2022-12-11T14:56:31;25.73;;;15.10;;
1691;SDS011;843;52.054;8.552;2022-12-11T14:58:58;25.23;;;14.20;;
1691;SDS011;843;52.054;8.552;2022-12-11T15:01:29;26.77;;;15.17;;
1691;SDS011;843;52.054;8.552;2022-12-11T15:04:04;23.10;;;13.70;;
1691;SDS011;843;52.054;8.552;2022-12-11T15:06:32;21.13;;;12.60;;
1691;SDS011;843;52.054;8.552;2022-12-11T15:09:15;25.90;;;13.90;;
1691;SDS011;843;52.054;8.552;2022-12-11T15:11:44;25.83;;;13.90;;
1691;SDS011;843;52.054;8.552;2022-12-11T15:14:11;25.87;;;15.80;;
1691;SDS011;843;52.054;8.552;2022-12-11T15:16:40;22.80;;;13.77;;
1691;SDS011;843;52.054;8.552;2022-12-11T15:19:14;22.10;;;14.07;;
1691;SDS011;843;52.054;8.552;2022-12-11T15:21:43;26.40;;;15.20;;